Date,TemperatureHighF,TemperatureAvgF,TemperatureLowF,DewpointHighF,DewpointAvgF,DewpointLowF,HumidityHigh,HumidityAvg,HumidityLow,PressureMaxIn,PressureMinIn,WindSpeedMaxMPH,WindSpeedAvgMPH,GustSpeedMaxMPH,PrecipitationSumIn
2013-3-1,40.2,35.2,31.4,27.9,24.2,17.9,72,64,52,30.31,30.19,19,2,19,0.00
2013-3-2,48.8,36.2,27.5,22.7,20.8,17.9,73,55,32,30.36,30.17,13,2,14,0.00
2013-3-3,63.0,48.2,32.1,34.3,28.8,22.0,72,49,30,30.17,29.67,21,3,26,0.00
2013-3-4,75.3,57.8,45.5,43.7,39.0,32.6,69,52,29,29.95,29.56,20,4,36,0.00
2013-3-5,49.7,41.6,35.9,37.2,24.6,17.0,88,53,31,30.36,29.98,25,3,27,0.08
2013-3-6,52.7,40.5,28.9,25.9,22.1,18.3,69,49,27,30.42,30.20,10,0,12,0.00
2013-3-7,66.3,51.6,36.4,31.9,29.0,25.8,70,44,24,30.21,30.06,22,3,27,0.00
2013-3-8,58.9,53.8,46.7,43.0,37.4,31.2,72,54,44,30.17,29.96,21,4,24,0.00
2013-3-9,62.4,57.9,54.0,57.8,49.6,37.0,96,76,44,29.96,29.65,26,3,28,0.44
2013-3-10,56.8,43.3,32.8,53.8,37.8,25.1,95,81,69,30.02,29.62,22,1,24,0.02
2013-3-11,53.2,39.9,30.1,26.9,22.2,14.4,82,53,22,30.03,29.96,11,0,14,0.00
2013-3-12,60.9,47.5,36.7,37.7,27.7,20.7,70,47,27,30.33,30.02,15,1,16,0.00
2013-3-13,60.0,45.4,32.7,27.8,24.8,19.2,78,46,24,30.47,30.30,12,0,16,0.00
2013-3-14,79.2,60.8,42.2,44.6,36.4,24.7,57,41,24,30.32,30.08,16,2,22,0.00
2013-3-15,83.3,68.9,54.6,50.3,45.4,43.0,71,45,25,30.10,29.76,21,3,26,0.00
2013-3-16,76.0,60.8,47.9,51.2,44.4,38.8,71,56,39,29.85,29.73,21,4,23,0.00
2013-3-17,48.6,44.0,41.0,42.7,40.8,37.4,94,89,70,29.84,29.68,20,2,25,0.00
2013-3-18,62.2,47.8,40.2,42.6,34.7,24.7,95,66,27,30.04,29.68,14,2,19,0.00
2013-3-19,60.4,48.3,40.0,31.1,28.5,23.6,66,48,29,30.25,30.00,21,1,21,0.00
2013-3-20,54.1,44.1,36.4,33.8,25.6,19.5,84,51,28,30.39,30.03,19,1,21,0.00
2013-3-21,43.1,39.8,37.8,35.6,28.9,21.0,90,66,42,30.06,29.73,17,2,21,0.05
2013-3-22,47.0,41.8,37.0,39.3,37.7,35.4,96,86,73,29.91,29.77,12,1,13,0.34
2013-3-23,42.9,40.7,37.5,41.9,39.0,36.3,97,94,84,29.90,29.72,14,1,17,0.04
2013-3-24,41.1,35.1,32.3,37.3,26.5,20.2,96,72,46,30.17,29.77,21,3,26,0.02
2013-3-25,39.7,33.9,29.0,24.2,20.9,16.9,77,59,42,30.37,30.16,16,2,20,0.00
2013-3-26,52.7,38.9,25.8,25.0,22.3,19.2,85,53,28,30.44,30.25,10,0,12,0.00
2013-3-27,67.0,51.8,34.7,34.4,28.8,23.8,67,43,27,30.27,30.07,22,3,30,0.00
2013-3-28,72.9,60.5,45.9,51.7,44.2,29.6,67,55,37,30.17,30.05,17,2,23,0.00
2013-3-29,72.2,61.4,52.7,58.4,55.1,48.7,95,81,61,30.13,30.05,12,0,16,0.28
2013-3-30,76.6,63.8,54.5,61.4,56.9,52.6,96,79,57,30.07,29.83,19,2,19,0.30
2013-3-31,72.1,60.5,52.5,58.0,47.8,41.5,94,66,37,30.00,29.87,22,2,25,0.00